Time;durP1;ratioP1;P1;durP2;ratioP2;P2;SDS_P1;SDS_P2;PMS_P1;PMS_P2;Temp;Humidity;BMP_temperature;BMP_pressure;BME280_temperature;BME280_humidity;BME280_pressure;Samples;Min_cycle;Max_cycle;Signal;HPM_P1;HPM_P2
2022/10/02 00:00:15;;;;;;;1.38;1.00;;;15.20;99.90;;;;;;5113150;28;20858;-72
2022/10/02 00:02:59;;;;;;;1.77;1.08;;;15.10;99.90;;;;;;5064522;28;20385;-72
2022/10/02 00:05:35;;;;;;;2.65;1.08;;;15.20;99.90;;;;;;5112499;28;20535;-73
2022/10/02 00:08:13;;;;;;;2.67;1.10;;;15.20;99.90;;;;;;5113192;28;20384;-73
2022/10/02 00:10:50;;;;;;;2.92;1.20;;;15.20;99.90;;;;;;5112275;28;20400;-73
2022/10/02 00:13:32;;;;;;;1.90;1.00;;;15.20;99.90;;;;;;5112243;28;20396;-72
2022/10/02 00:15:57;;;;;;;3.80;1.20;;;15.20;99.90;;;;;;5113097;28;20396;-73
2022/10/02 00:18:30;;;;;;;2.20;1.03;;;15.20;99.90;;;;;;5110912;28;20399;-73
2022/10/02 00:21:01;;;;;;;2.50;0.90;;;15.20;99.90;;;;;;5111357;28;20404;-73
2022/10/02 00:23:36;;;;;;;4.30;1.10;;;15.10;99.90;;;;;;5112503;28;20376;-73
2022/10/02 00:26:26;;;;;;;2.88;1.08;;;15.30;99.90;;;;;;5112806;28;20438;-72
2022/10/02 00:29:13;;;;;;;1.70;1.10;;;15.20;99.90;;;;;;5110997;28;20769;-72
2022/10/02 00:31:59;;;;;;;1.95;0.90;;;15.20;99.90;;;;;;5105480;28;20392;-73
2022/10/02 00:34:51;;;;;;;1.70;1.20;;;15.20;99.90;;;;;;5112217;28;20387;-73
2022/10/02 00:37:24;;;;;;;2.83;1.40;;;15.30;99.90;;;;;;5081503;28;20412;-72
2022/10/02 00:40:16;;;;;;;1.95;1.10;;;15.30;99.90;;;;;;5112195;28;20393;-72
2022/10/02 00:43:14;;;;;;;3.50;1.13;;;15.40;99.90;;;;;;5093908;28;20487;-72
2022/10/02 00:45:58;;;;;;;1.77;1.02;;;15.30;99.90;;;;;;5046994;28;20412;-72
2022/10/02 00:48:30;;;;;;;4.05;1.40;;;15.30;99.90;;;;;;5112273;27;20392;-72
2022/10/02 00:51:17;;;;;;;1.75;1.00;;;15.40;99.90;;;;;;5096528;27;20958;-73
2022/10/02 00:54:27;;;;;;;2.60;1.33;;;15.40;99.90;;;;;;5105143;28;20776;-73
2022/10/02 00:57:23;;;;;;;2.50;1.00;;;15.40;99.90;;;;;;5014724;28;20415;-73
2022/10/02 01:00:13;;;;;;;1.83;1.23;;;15.40;99.90;;;;;;5100846;28;20539;-73
2022/10/02 01:02:53;;;;;;;2.80;1.00;;;15.40;99.90;;;;;;5111242;28;20483;-73
2022/10/02 01:05:19;;;;;;;2.50;1.00;;;15.40;99.90;;;;;;5110571;28;20438;-72
2022/10/02 01:07:50;;;;;;;1.63;1.10;;;15.40;99.90;;;;;;5109458;28;20400;-73
2022/10/02 01:10:16;;;;;;;2.80;1.30;;;15.50;99.90;;;;;;5111767;28;20546;-72
2022/10/02 01:12:41;;;;;;;2.53;1.00;;;15.40;99.90;;;;;;5111493;28;20475;-73
2022/10/02 01:15:15;;;;;;;2.40;1.30;;;15.40;99.90;;;;;;5110691;28;20401;-72
2022/10/02 01:17:41;;;;;;;1.50;1.08;;;15.40;99.90;;;;;;5111622;27;20384;-73
2022/10/02 01:20:14;;;;;;;1.73;1.10;;;15.50;99.90;;;;;;5092478;28;20403;-73
2022/10/02 01:23:02;;;;;;;4.22;1.10;;;15.40;99.90;;;;;;5111451;28;20387;-73
2022/10/02 01:25:28;;;;;;;3.40;1.05;;;15.50;99.90;;;;;;5112939;27;20431;-73
2022/10/02 01:27:53;;;;;;;2.78;1.15;;;15.50;99.90;;;;;;5111708;27;20392;-73
2022/10/02 01:30:20;;;;;;;3.67;1.30;;;15.50;99.90;;;;;;5109397;28;20517;-73
2022/10/02 01:32:57;;;;;;;2.50;1.27;;;15.50;99.90;;;;;;5110863;28;20399;-73
2022/10/02 01:35:26;;;;;;;2.30;1.50;;;15.50;99.90;;;;;;5121405;27;20398;-73
2022/10/02 01:37:54;;;;;;;2.33;1.20;;;15.50;99.90;;;;;;5112132;27;20458;-73
2022/10/02 01:40:30;;;;;;;3.15;1.20;;;15.50;99.90;;;;;;5129536;27;20420;-72
2022/10/02 01:43:18;;;;;;;3.13;1.00;;;15.60;99.90;;;;;;5111018;28;20506;-72
2022/10/02 01:45:52;;;;;;;1.10;1.00;;;15.60;99.90;;;;;;5076418;28;20893;-73
2022/10/02 01:48:43;;;;;;;2.55;1.00;;;15.60;99.90;;;;;;5115565;27;20774;-73
2022/10/02 01:51:31;;;;;;;3.15;1.00;;;15.50;99.90;;;;;;5108017;28;20479;-73
2022/10/02 01:54:17;;;;;;;3.88;1.10;;;15.60;99.90;;;;;;5110653;28;20395;-73
2022/10/02 01:56:52;;;;;;;1.30;0.87;;;15.60;99.90;;;;;;5112612;22;20512;-71
2022/10/02 01:59:22;;;;;;;3.95;1.40;;;15.60;99.90;;;;;;5089166;28;20481;-71
2022/10/02 02:02:03;;;;;;;3.13;1.00;;;15.60;99.90;;;;;;5089302;28;20501;-70
2022/10/02 02:04:40;;;;;;;2.72;1.08;;;15.60;99.90;;;;;;5089933;28;21076;-71
2022/10/02 02:07:09;;;;;;;2.55;1.30;;;15.60;99.90;;;;;;5070085;28;20403;-71
2022/10/02 02:09:37;;;;;;;1.95;1.30;;;15.60;99.90;;;;;;5068777;28;20391;-71
2022/10/02 02:12:13;;;;;;;2.78;1.00;;;15.60;99.90;;;;;;5066602;28;20936;-71
2022/10/02 02:14:57;;;;;;;2.40;0.98;;;15.80;99.90;;;;;;5067969;28;20411;-71
2022/10/02 02:17:28;;;;;;;1.60;0.75;;;15.90;99.90;;;;;;5070247;28;20479;-70
2022/10/02 02:20:04;;;;;;;5.32;1.27;;;15.80;99.90;;;;;;5070107;28;20417;-71
2022/10/02 02:22:35;;;;;;;3.65;0.98;;;15.80;99.90;;;;;;5070051;28;20384;-71
2022/10/02 02:25:06;;;;;;;3.05;1.20;;;15.80;99.90;;;;;;5068403;28;20454;-70
2022/10/02 02:27:38;;;;;;;2.00;1.00;;;15.70;99.90;;;;;;5072085;28;20867;-71
2022/10/02 02:30:08;;;;;;;3.25;1.10;;;15.70;99.90;;;;;;5069885;28;20451;-71
2022/10/02 02:32:37;;;;;;;1.30;0.90;;;15.80;99.90;;;;;;5069831;28;20425;-70
2022/10/02 02:35:16;;;;;;;3.42;1.30;;;15.80;99.90;;;;;;5068718;28;20400;-71
2022/10/02 02:37:43;;;;;;;2.83;1.20;;;15.80;99.90;;;;;;5063004;28;20390;-70
2022/10/02 02:40:14;;;;;;;1.63;1.10;;;15.70;99.90;;;;;;5068667;28;20400;-71
2022/10/02 02:43:19;;;;;;;1.90;1.02;;;15.80;99.90;;;;;;5069427;28;20866;-71
2022/10/02 02:45:55;;;;;;;2.78;1.17;;;15.70;99.90;;;;;;5023767;28;20408;-71
2022/10/02 02:48:23;;;;;;;1.85;1.02;;;15.70;99.90;;;;;;5069521;28;20468;-72
2022/10/02 02:51:14;;;;;;;2.72;1.15;;;15.60;99.90;;;;;;5051767;28;20383;-71
2022/10/02 02:53:56;;;;;;;2.78;1.10;;;15.60;99.90;;;;;;5069556;28;20422;-70
2022/10/02 02:56:23;;;;;;;2.70;1.00;;;15.60;99.90;;;;;;5067260;28;20407;-70
2022/10/02 02:58:59;;;;;;;2.50;1.20;;;15.70;99.90;;;;;;5068241;28;20924;-71
2022/10/02 03:01:24;;;;;;;3.80;1.00;;;15.80;99.90;;;;;;5068617;28;20433;-70
2022/10/02 03:03:50;;;;;;;1.45;0.80;;;15.70;99.90;;;;;;5069541;28;20738;-71
2022/10/02 03:06:16;;;;;;;3.07;1.30;;;15.80;99.90;;;;;;5068518;28;20408;-70
2022/10/02 03:08:43;;;;;;;4.30;1.20;;;15.80;99.90;;;;;;5069709;28;20380;-71
2022/10/02 03:11:24;;;;;;;2.80;1.20;;;15.90;99.90;;;;;;5072996;28;20383;-71
2022/10/02 03:14:15;;;;;;;4.28;1.20;;;15.80;99.90;;;;;;5073176;28;20842;-71
2022/10/02 03:16:59;;;;;;;1.73;1.13;;;15.80;99.90;;;;;;5066322;28;20512;-71
2022/10/02 03:19:40;;;;;;;1.20;0.80;;;15.90;99.90;;;;;;5077305;28;20464;-71
2022/10/02 03:22:24;;;;;;;2.80;1.00;;;15.90;99.90;;;;;;5079852;28;20738;-72
2022/10/02 03:25:01;;;;;;;3.80;0.80;;;15.80;99.90;;;;;;5073741;28;20881;-70
2022/10/02 03:27:52;;;;;;;2.00;1.10;;;15.80;99.90;;;;;;5077723;28;20850;-70
2022/10/02 03:30:19;;;;;;;1.80;1.00;;;15.80;99.90;;;;;;5073088;28;20380;-70
2022/10/02 03:32:47;;;;;;;2.17;1.00;;;15.80;99.90;;;;;;5072057;28;20415;-71
2022/10/02 03:35:13;;;;;;;2.13;1.20;;;15.80;99.90;;;;;;5072441;28;20407;-70
2022/10/02 03:37:44;;;;;;;3.92;1.10;;;15.90;99.90;;;;;;5072311;28;20391;-70
2022/10/02 03:40:09;;;;;;;2.60;1.10;;;15.90;99.90;;;;;;5072422;28;20478;-71
2022/10/02 03:42:35;;;;;;;2.17;1.10;;;16.00;99.90;;;;;;5072222;28;20878;-71
2022/10/02 03:45:01;;;;;;;2.85;0.93;;;15.90;99.90;;;;;;5072068;28;20402;-71
2022/10/02 03:47:27;;;;;;;3.00;1.00;;;15.80;99.90;;;;;;5073301;28;20462;-71
2022/10/02 03:49:52;;;;;;;3.00;1.00;;;15.80;99.90;;;;;;5070511;28;20482;-70
2022/10/02 03:52:20;;;;;;;1.70;0.90;;;15.90;99.90;;;;;;5072122;28;20399;-70
2022/10/02 03:54:50;;;;;;;2.28;1.42;;;15.90;99.90;;;;;;5071581;28;20396;-70
2022/10/02 03:57:21;;;;;;;2.28;1.10;;;15.90;99.90;;;;;;5073006;28;20403;-70
2022/10/02 03:59:56;;;;;;;1.42;0.75;;;15.90;99.90;;;;;;5073944;28;20391;-71
2022/10/02 04:02:41;;;;;;;1.08;0.90;;;15.90;99.90;;;;;;5086880;28;20439;-71
2022/10/02 04:05:29;;;;;;;1.10;0.80;;;15.90;99.90;;;;;;5071708;28;20406;-70
2022/10/02 04:08:09;;;;;;;2.00;1.10;;;15.90;99.90;;;;;;5072772;28;20471;-71
2022/10/02 04:10:43;;;;;;;2.20;1.13;;;15.90;99.90;;;;;;5073066;28;20372;-71
2022/10/02 04:13:31;;;;;;;3.00;1.10;;;15.90;99.90;;;;;;5053199;28;20482;-70
2022/10/02 04:15:59;;;;;;;2.63;1.00;;;15.90;99.90;;;;;;5071996;28;20408;-70
2022/10/02 04:18:39;;;;;;;1.52;1.00;;;16.00;99.90;;;;;;5072420;28;20754;-71
2022/10/02 04:21:17;;;;;;;1.95;1.00;;;15.90;99.90;;;;;;5071868;28;20391;-70
2022/10/02 04:23:50;;;;;;;3.30;1.20;;;15.90;99.90;;;;;;5066537;28;20839;-70
2022/10/02 04:26:24;;;;;;;4.10;1.27;;;15.90;99.90;;;;;;5066725;28;20751;-71
2022/10/02 04:28:56;;;;;;;4.10;1.33;;;15.90;99.90;;;;;;5072269;28;20380;-70
2022/10/02 04:31:26;;;;;;;4.05;1.10;;;15.90;99.90;;;;;;5072397;28;20411;-71
2022/10/02 04:33:52;;;;;;;2.50;1.17;;;15.90;99.90;;;;;;5070924;28;20500;-71
2022/10/02 04:36:45;;;;;;;1.75;1.00;;;16.00;99.90;;;;;;5071566;28;20411;-70
2022/10/02 04:39:37;;;;;;;2.83;1.15;;;16.00;99.90;;;;;;5072153;28;20376;-71
2022/10/02 04:42:30;;;;;;;3.10;1.00;;;15.80;99.90;;;;;;5071039;28;20449;-71
2022/10/02 04:45:25;;;;;;;2.40;1.30;;;15.90;99.90;;;;;;5071971;28;20508;-70
2022/10/02 04:48:19;;;;;;;2.40;1.00;;;16.00;99.90;;;;;;5053425;28;20526;-71
2022/10/02 04:51:03;;;;;;;4.60;1.08;;;15.90;99.90;;;;;;5071480;28;20758;-71
2022/10/02 04:54:11;;;;;;;1.90;1.20;;;15.80;99.90;;;;;;5071634;28;20403;-70
2022/10/02 04:56:49;;;;;;;1.52;1.10;;;15.70;99.90;;;;;;5074293;28;20469;-71
2022/10/02 04:59:36;;;;;;;2.50;1.10;;;15.90;99.90;;;;;;5049092;28;20754;-71
2022/10/02 05:02:10;;;;;;;2.00;1.20;;;16.00;99.90;;;;;;5072710;28;20414;-70
2022/10/02 05:04:48;;;;;;;2.35;1.02;;;16.00;99.90;;;;;;5076491;28;20380;-70
2022/10/02 05:07:23;;;;;;;2.30;1.20;;;16.00;99.90;;;;;;5076778;28;20942;-70
2022/10/02 05:10:18;;;;;;;1.95;1.10;;;16.00;99.90;;;;;;5078990;28;20457;-70
2022/10/02 05:13:07;;;;;;;3.55;0.90;;;16.10;99.90;;;;;;5077399;28;20407;-71
2022/10/02 05:15:54;;;;;;;1.27;0.80;;;16.00;99.90;;;;;;5076861;28;20809;-71
2022/10/02 05:18:38;;;;;;;1.90;1.00;;;16.00;99.90;;;;;;5071249;28;20391;-70
2022/10/02 05:21:29;;;;;;;4.97;1.60;;;16.10;99.90;;;;;;5068268;28;20383;-72
2022/10/02 05:24:22;;;;;;;3.00;1.00;;;16.10;99.90;;;;;;5072450;28;20935;-70
2022/10/02 05:27:11;;;;;;;2.47;0.90;;;16.00;99.90;;;;;;5074443;28;20477;-71
2022/10/02 05:29:58;;;;;;;2.55;0.90;;;16.10;99.90;;;;;;5070794;28;20399;-70
2022/10/02 05:32:59;;;;;;;2.85;1.00;;;16.10;99.90;;;;;;5070600;28;20415;-71
2022/10/02 05:35:43;;;;;;;2.47;1.00;;;16.20;99.90;;;;;;5068928;28;20432;-71
2022/10/02 05:38:46;;;;;;;1.70;1.10;;;16.30;99.90;;;;;;5065520;28;20392;-71
2022/10/02 05:41:29;;;;;;;2.00;1.20;;;16.40;99.90;;;;;;5044551;28;20394;-71
2022/10/02 05:44:03;;;;;;;2.28;1.30;;;16.40;99.90;;;;;;5063860;28;20781;-70
2022/10/02 05:46:35;;;;;;;1.55;1.40;;;16.50;99.90;;;;;;5070358;28;20392;-70
2022/10/02 05:49:26;;;;;;;1.70;0.83;;;16.50;99.90;;;;;;5070555;28;20396;-70
2022/10/02 05:52:03;;;;;;;1.75;1.00;;;16.40;99.90;;;;;;5067032;28;20396;-71
2022/10/02 05:55:12;;;;;;;4.13;1.20;;;16.40;99.90;;;;;;5066919;28;20396;-71
2022/10/02 05:57:50;;;;;;;1.13;0.90;;;16.50;99.90;;;;;;5049820;28;20763;-70
2022/10/02 06:00:25;;;;;;;2.05;1.10;;;16.50;99.90;;;;;;5067236;28;20486;-71
2022/10/02 06:03:12;;;;;;;2.72;1.00;;;16.50;99.90;;;;;;5066240;28;20462;-71
2022/10/02 06:05:54;;;;;;;2.40;1.10;;;16.50;99.90;;;;;;5067695;28;20950;-71
2022/10/02 06:08:45;;;;;;;1.15;0.90;;;16.50;99.90;;;;;;5069779;28;20391;-72
2022/10/02 06:11:30;;;;;;;2.70;0.82;;;16.60;99.90;;;;;;5063498;28;20893;-71
2022/10/02 06:14:26;;;;;;;1.10;0.80;;;16.50;99.90;;;;;;5066840;28;20398;-70
2022/10/02 06:16:58;;;;;;;3.70;1.00;;;16.60;99.90;;;;;;5066440;28;20494;-70
2022/10/02 06:19:41;;;;;;;1.90;0.90;;;16.60;99.90;;;;;;5065496;28;20483;-71
2022/10/02 06:22:21;;;;;;;2.25;0.77;;;16.70;99.90;;;;;;5063403;28;20951;-70
2022/10/02 06:24:52;;;;;;;2.67;0.80;;;16.70;99.90;;;;;;5066451;28;20939;-72
2022/10/02 06:27:28;;;;;;;1.40;0.70;;;16.70;99.90;;;;;;5069995;28;20384;-71
2022/10/02 06:29:59;;;;;;;1.20;0.75;;;16.70;99.90;;;;;;5069915;28;20415;-70
2022/10/02 06:32:39;;;;;;;1.10;0.70;;;16.80;99.90;;;;;;5066239;28;20409;-71
2022/10/02 06:35:12;;;;;;;1.40;1.10;;;16.80;99.90;;;;;;5045676;28;20399;-69
2022/10/02 06:37:43;;;;;;;1.52;0.90;;;16.90;99.90;;;;;;5065060;28;20404;-70
2022/10/02 06:40:41;;;;;;;3.40;1.17;;;16.90;99.90;;;;;;5067671;28;20427;-71
2022/10/02 06:43:19;;;;;;;0.90;0.80;;;16.90;99.90;;;;;;5061857;28;20488;-70
2022/10/02 06:45:57;;;;;;;1.50;0.90;;;17.00;99.90;;;;;;5069807;28;20375;-70
2022/10/02 06:48:41;;;;;;;1.80;1.00;;;17.00;99.90;;;;;;5067135;28;20375;-70
2022/10/02 06:51:21;;;;;;;0.80;0.75;;;17.00;99.90;;;;;;5066029;28;20815;-69
2022/10/02 06:54:07;;;;;;;1.40;0.70;;;17.00;99.90;;;;;;5061740;28;20387;-70
2022/10/02 06:56:52;;;;;;;1.75;0.70;;;17.10;99.90;;;;;;5066102;28;20431;-70
2022/10/02 06:59:42;;;;;;;2.47;0.80;;;17.10;99.90;;;;;;5066542;28;21021;-71
2022/10/02 07:02:44;;;;;;;1.10;0.70;;;17.10;99.90;;;;;;5062189;28;20440;-71
2022/10/02 07:05:55;;;;;;;0.80;0.60;;;17.00;99.90;;;;;;5067558;28;20399;-71
2022/10/02 07:08:27;;;;;;;2.15;0.90;;;16.90;99.90;;;;;;5053365;28;20820;-71
2022/10/02 07:11:17;;;;;;;1.40;0.60;;;17.00;99.90;;;;;;5069654;28;20751;-71
2022/10/02 07:13:45;;;;;;;0.80;0.60;;;17.00;99.90;;;;;;5062288;28;20400;-70
2022/10/02 07:16:26;;;;;;;1.77;0.80;;;16.90;99.90;;;;;;5069371;28;20411;-70
2022/10/02 07:19:02;;;;;;;1.10;0.50;;;16.90;99.90;;;;;;5064118;28;20397;-69
2022/10/02 07:21:57;;;;;;;1.50;0.50;;;16.80;99.90;;;;;;5067618;28;20427;-69
2022/10/02 07:24:48;;;;;;;1.50;0.60;;;16.90;99.90;;;;;;5060644;28;20956;-70
2022/10/02 07:27:25;;;;;;;1.20;0.70;;;17.10;99.90;;;;;;5069301;28;20409;-70
2022/10/02 07:30:13;;;;;;;0.70;0.50;;;17.20;99.90;;;;;;5066089;28;20882;-70
2022/10/02 07:33:14;;;;;;;1.10;0.50;;;17.30;99.90;;;;;;5066223;28;20769;-70
2022/10/02 07:35:42;;;;;;;1.50;0.40;;;17.40;99.90;;;;;;5065890;28;20411;-70
2022/10/02 07:38:44;;;;;;;1.55;0.50;;;17.40;99.90;;;;;;5070849;28;20758;-71
2022/10/02 07:41:28;;;;;;;1.23;0.40;;;17.50;99.90;;;;;;5067664;28;20408;-71
2022/10/02 07:44:16;;;;;;;0.70;0.30;;;17.40;99.90;;;;;;5068735;28;21023;-71
2022/10/02 07:46:59;;;;;;;0.70;0.50;;;17.50;99.90;;;;;;5067533;28;20404;-70
2022/10/02 07:49:44;;;;;;;0.40;0.30;;;17.50;99.90;;;;;;5072078;28;20394;-71
2022/10/02 07:52:35;;;;;;;0.73;0.40;;;17.50;99.90;;;;;;5073217;28;20407;-71
2022/10/02 07:55:13;;;;;;;0.40;0.30;;;17.60;99.90;;;;;;5066709;28;20759;-70
2022/10/02 07:57:51;;;;;;;0.70;0.40;;;17.70;99.90;;;;;;5126554;22;20788;-72
2022/10/02 08:00:18;;;;;;;0.50;0.30;;;17.70;99.90;;;;;;5130558;27;20463;-72
2022/10/02 08:03:21;;;;;;;0.50;0.30;;;17.80;99.90;;;;;;5125322;27;21091;-72
2022/10/02 08:05:54;;;;;;;0.90;0.40;;;17.70;99.90;;;;;;5121888;27;20475;-72
2022/10/02 08:08:37;;;;;;;0.50;0.40;;;17.80;99.90;;;;;;5111650;27;20907;-72
2022/10/02 08:11:20;;;;;;;0.55;0.40;;;17.70;99.90;;;;;;5109065;27;20495;-71
2022/10/02 08:14:01;;;;;;;0.50;0.30;;;17.70;99.90;;;;;;5109701;28;20427;-71
2022/10/02 08:16:33;;;;;;;0.63;0.30;;;17.80;99.90;;;;;;5110653;27;20491;-72
2022/10/02 08:19:07;;;;;;;0.60;0.40;;;17.80;99.90;;;;;;5109247;28;20404;-72
2022/10/02 08:21:39;;;;;;;0.50;0.30;;;17.90;99.90;;;;;;5109024;28;20442;-72
2022/10/02 08:24:12;;;;;;;0.60;0.40;;;18.00;99.90;;;;;;5112611;28;20964;-72
2022/10/02 08:26:41;;;;;;;0.60;0.38;;;18.00;99.90;;;;;;5124932;27;20397;-71
2022/10/02 08:29:21;;;;;;;0.50;0.43;;;18.00;99.90;;;;;;5108255;27;20408;-71
2022/10/02 08:31:50;;;;;;;0.50;0.40;;;18.10;99.90;;;;;;5111294;27;20393;-70
2022/10/02 08:34:19;;;;;;;0.43;0.30;;;18.10;99.90;;;;;;5110686;27;20590;-71
2022/10/02 08:36:48;;;;;;;0.50;0.40;;;18.00;99.90;;;;;;5112611;27;20400;-72
2022/10/02 08:39:28;;;;;;;0.50;0.30;;;18.00;99.90;;;;;;5105152;27;20412;-72
2022/10/02 08:42:38;;;;;;;0.50;0.30;;;18.00;99.90;;;;;;5105820;27;20869;-72
2022/10/02 08:45:33;;;;;;;0.40;0.30;;;18.00;99.90;;;;;;5109146;27;20402;-72
2022/10/02 08:48:14;;;;;;;0.70;0.30;;;18.00;99.90;;;;;;5111317;28;20400;-73
2022/10/02 08:50:58;;;;;;;1.00;0.30;;;18.00;99.90;;;;;;5106406;27;20417;-73
2022/10/02 08:54:00;;;;;;;0.50;0.32;;;17.90;99.90;;;;;;5102236;28;20407;-72
2022/10/02 08:56:50;;;;;;;0.70;0.40;;;17.90;99.90;;;;;;5105403;28;20410;-72
2022/10/02 09:00:00;;;;;;;0.95;0.50;;;17.80;99.90;;;;;;5106000;27;20420;-73
2022/10/02 09:02:50;;;;;;;0.90;0.40;;;17.60;99.90;;;;;;5070312;27;20525;-73
2022/10/02 09:05:47;;;;;;;0.40;0.30;;;17.00;99.90;;;;;;5108929;27;20493;-73
2022/10/02 09:08:32;;;;;;;0.50;0.30;;;16.80;99.90;;;;;;5106078;27;20403;-71
2022/10/02 09:11:26;;;;;;;0.70;0.50;;;16.70;99.90;;;;;;5106760;27;21278;-72
2022/10/02 09:14:10;;;;;;;0.50;0.40;;;16.70;99.90;;;;;;5107213;27;20396;-72
2022/10/02 09:16:46;;;;;;;0.40;0.30;;;16.70;99.90;;;;;;5107546;27;20814;-72
2022/10/02 09:19:29;;;;;;;0.60;0.50;;;16.70;99.90;;;;;;5106185;27;20485;-72
2022/10/02 09:22:20;;;;;;;0.50;0.40;;;16.80;99.90;;;;;;5106039;27;20415;-72
2022/10/02 09:25:00;;;;;;;0.40;0.30;;;16.80;99.90;;;;;;5106004;27;20404;-72
2022/10/02 09:27:53;;;;;;;0.77;0.30;;;16.80;99.90;;;;;;5103710;28;20412;-72
2022/10/02 09:30:57;;;;;;;0.50;0.40;;;16.90;99.90;;;;;;5105036;27;20403;-72
2022/10/02 09:33:32;;;;;;;0.50;0.40;;;17.00;99.90;;;;;;5100374;27;20500;-72
2022/10/02 09:36:31;;;;;;;0.40;0.30;;;17.00;99.90;;;;;;5101560;28;20408;-72
2022/10/02 09:39:27;;;;;;;0.60;0.40;;;17.10;99.90;;;;;;5107683;27;20420;-73
2022/10/02 09:42:20;;;;;;;0.50;0.40;;;17.00;99.90;;;;;;5108369;27;20391;-72
2022/10/02 09:45:20;;;;;;;0.40;0.30;;;17.00;99.90;;;;;;5111374;27;20388;-73
2022/10/02 09:48:09;;;;;;;0.50;0.40;;;17.00;99.90;;;;;;5126197;27;20395;-72
2022/10/02 09:50:48;;;;;;;0.45;0.30;;;17.00;99.90;;;;;;5074071;28;20929;-72
2022/10/02 09:53:26;;;;;;;0.52;0.35;;;17.00;99.90;;;;;;5108120;28;20897;-73
2022/10/02 09:56:14;;;;;;;0.50;0.40;;;17.00;99.90;;;;;;5102695;28;20404;-74
2022/10/02 09:59:08;;;;;;;1.40;0.50;;;16.90;99.90;;;;;;5087113;28;20423;-74
2022/10/02 10:01:58;;;;;;;1.30;0.40;;;16.80;99.90;;;;;;5106067;28;20494;-73
2022/10/02 10:04:50;;;;;;;1.02;0.70;;;16.80;99.90;;;;;;5100650;28;20433;-73
2022/10/02 10:07:39;;;;;;;0.80;0.50;;;16.70;99.90;;;;;;5108818;28;20548;-73
2022/10/02 10:10:23;;;;;;;0.60;0.40;;;16.60;99.90;;;;;;5111158;28;20396;-76
2022/10/02 10:13:16;;;;;;;0.60;0.60;;;16.60;99.90;;;;;;5108774;28;20396;-77
2022/10/02 10:16:00;;;;;;;0.50;0.40;;;16.60;99.90;;;;;;5103988;28;20412;-75
2022/10/02 10:18:49;;;;;;;0.50;0.30;;;16.50;99.90;;;;;;5109429;27;20400;-77
2022/10/02 10:21:53;;;;;;;0.50;0.40;;;16.50;99.90;;;;;;5109409;28;20376;-77
2022/10/02 10:24:22;;;;;;;0.95;0.40;;;16.40;99.90;;;;;;5088080;28;20876;-75
2022/10/02 10:27:15;;;;;;;1.20;0.40;;;16.30;99.90;;;;;;5100852;28;20762;-76
2022/10/02 10:30:12;;;;;;;0.50;0.40;;;16.30;99.90;;;;;;5110449;28;20394;-74
2022/10/02 10:32:41;;;;;;;0.40;0.30;;;16.40;99.90;;;;;;5108680;28;20480;-77
2022/10/02 10:35:42;;;;;;;0.50;0.40;;;16.30;99.90;;;;;;5111173;28;20384;-75
2022/10/02 10:38:33;;;;;;;0.60;0.50;;;16.40;99.90;;;;;;5110506;28;20788;-75
2022/10/02 10:41:49;;;;;;;0.60;0.50;;;16.40;99.90;;;;;;5109382;28;20384;-75
2022/10/02 10:44:17;;;;;;;1.00;0.47;;;16.50;99.90;;;;;;5047542;28;20377;-75
2022/10/02 10:46:52;;;;;;;0.80;0.70;;;16.50;99.90;;;;;;5030992;28;20390;-75
2022/10/02 10:49:39;;;;;;;1.23;0.60;;;16.50;99.90;;;;;;5073729;28;20384;-74
2022/10/02 10:52:31;;;;;;;0.60;0.50;;;16.50;99.90;;;;;;5110499;28;20823;-74
2022/10/02 10:55:18;;;;;;;0.80;0.60;;;16.50;99.90;;;;;;5094278;28;20892;-74
2022/10/02 10:58:13;;;;;;;1.00;0.70;;;16.50;99.90;;;;;;5110225;28;20404;-75
2022/10/02 11:01:06;;;;;;;1.10;0.70;;;16.60;99.90;;;;;;5109353;28;20388;-74
2022/10/02 11:04:00;;;;;;;0.60;0.60;;;16.70;99.90;;;;;;5110435;28;20376;-76
2022/10/02 11:06:57;;;;;;;1.50;0.80;;;16.80;99.90;;;;;;5110139;28;20388;-76
2022/10/02 11:09:49;;;;;;;0.73;0.70;;;16.80;99.90;;;;;;5109236;28;20497;-76
2022/10/02 11:12:42;;;;;;;0.80;0.80;;;16.90;99.90;;;;;;5110444;28;20399;-76
2022/10/02 11:15:16;;;;;;;1.30;0.80;;;17.10;99.90;;;;;;5110531;28;20390;-75
2022/10/02 11:17:55;;;;;;;1.00;0.80;;;17.30;99.90;;;;;;5108881;28;20400;-76
2022/10/02 11:20:28;;;;;;;0.70;0.60;;;17.60;99.90;;;;;;5110111;28;20384;-75
2022/10/02 11:23:04;;;;;;;0.90;0.60;;;17.80;99.90;;;;;;5109805;28;20399;-75
2022/10/02 11:25:40;;;;;;;0.80;0.65;;;17.90;99.90;;;;;;5090272;28;20390;-72
2022/10/02 11:28:33;;;;;;;0.80;0.68;;;17.90;99.90;;;;;;5090030;28;20374;-73
2022/10/02 11:31:28;;;;;;;0.85;0.60;;;18.10;99.90;;;;;;5091176;28;20458;-73
2022/10/02 11:34:34;;;;;;;1.00;0.70;;;18.20;99.90;;;;;;5093729;28;20876;-73
2022/10/02 11:37:06;;;;;;;0.70;0.70;;;18.40;99.90;;;;;;5094032;28;20402;-73
2022/10/02 11:39:54;;;;;;;1.10;0.60;;;19.10;99.90;;;;;;5109359;28;20395;-74
2022/10/02 11:42:49;;;;;;;1.40;0.70;;;19.20;99.90;;;;;;5114267;28;20480;-74
2022/10/02 11:45:42;;;;;;;0.60;0.60;;;18.90;99.90;;;;;;5114129;28;20451;-76
2022/10/02 11:48:13;;;;;;;0.60;0.60;;;18.70;99.90;;;;;;5112831;28;20384;-73
2022/10/02 11:51:16;;;;;;;0.52;0.50;;;18.80;99.90;;;;;;5113961;28;20403;-74
2022/10/02 11:54:11;;;;;;;0.60;0.43;;;19.20;99.90;;;;;;5112059;28;20396;-74
2022/10/02 11:57:17;;;;;;;0.60;0.60;;;18.90;99.90;;;;;;5103670;28;20412;-74
2022/10/02 12:00:03;;;;;;;0.80;0.80;;;18.60;99.90;;;;;;5112767;28;20904;-78
2022/10/02 12:02:54;;;;;;;0.70;0.50;;;18.70;99.90;;;;;;5114033;28;20754;-76
2022/10/02 12:05:52;;;;;;;0.80;0.60;;;18.90;99.90;;;;;;5113673;28;20372;-77
2022/10/02 12:08:33;;;;;;;0.80;0.70;;;19.20;99.90;;;;;;5093239;28;20898;-77
2022/10/02 12:11:20;;;;;;;0.50;0.50;;;19.00;99.90;;;;;;5093554;28;20389;-75
2022/10/02 12:14:20;;;;;;;0.70;0.70;;;18.90;99.90;;;;;;5091531;28;20385;-75
2022/10/02 12:17:12;;;;;;;0.52;0.45;;;18.90;99.90;;;;;;5092667;28;20888;-76
2022/10/02 12:28:22;;;;;;;0.70;0.70;;;19.20;99.90;;;;;;5093713;28;20427;-77
2022/10/02 12:30:55;;;;;;;0.60;0.50;;;19.10;99.90;;;;;;5094432;28;20842;-76
2022/10/02 12:33:58;;;;;;;0.60;0.57;;;18.90;99.90;;;;;;5098860;28;20392;-76
2022/10/02 12:36:40;;;;;;;0.65;0.50;;;18.80;99.90;;;;;;5113158;28;20927;-75
2022/10/02 12:39:58;;;;;;;0.80;0.60;;;18.70;99.90;;;;;;5111374;28;20449;-76
2022/10/02 12:42:29;;;;;;;0.70;0.70;;;18.70;99.90;;;;;;5103612;28;20412;-75
2022/10/02 12:45:06;;;;;;;0.90;0.68;;;18.70;99.90;;;;;;5112877;28;20376;-75
2022/10/02 12:47:46;;;;;;;0.60;0.60;;;18.70;99.90;;;;;;5112726;28;20893;-76
2022/10/02 12:50:22;;;;;;;1.50;0.65;;;18.90;99.90;;;;;;5112328;28;20475;-75
2022/10/02 12:53:00;;;;;;;0.70;0.50;;;19.20;99.90;;;;;;5112434;28;20403;-74
2022/10/02 12:55:47;;;;;;;0.70;0.50;;;19.30;99.90;;;;;;5111531;28;20444;-75
2022/10/02 12:58:34;;;;;;;0.60;0.50;;;19.30;99.90;;;;;;5112545;28;20399;-74
2022/10/02 13:01:30;;;;;;;1.38;0.60;;;19.10;99.90;;;;;;5112710;28;20468;-73
2022/10/02 13:04:26;;;;;;;1.50;0.50;;;19.00;99.90;;;;;;5111931;28;20915;-73
2022/10/02 13:07:39;;;;;;;0.90;0.50;;;19.00;99.90;;;;;;5112126;27;20396;-74
2022/10/02 13:10:44;;;;;;;1.17;0.50;;;19.00;99.90;;;;;;5110973;28;20380;-72
2022/10/02 13:13:15;;;;;;;0.50;0.47;;;19.10;99.90;;;;;;5092027;28;20396;-74
2022/10/02 13:16:25;;;;;;;0.50;0.50;;;19.10;99.90;;;;;;5112239;28;20416;-74
2022/10/02 13:19:15;;;;;;;0.70;0.50;;;19.20;99.90;;;;;;5101154;28;20525;-73
2022/10/02 13:21:56;;;;;;;0.70;0.50;;;19.40;99.90;;;;;;5111927;28;20480;-73
2022/10/02 13:24:46;;;;;;;1.30;0.70;;;19.60;99.90;;;;;;5102565;28;20442;-71
2022/10/02 13:27:38;;;;;;;0.70;0.60;;;20.20;99.90;;;;;;5111761;28;20388;-71
2022/10/02 13:30:22;;;;;;;0.85;0.50;;;20.40;99.90;;;;;;5111975;28;20887;-73
2022/10/02 13:33:21;;;;;;;0.70;0.50;;;19.80;99.90;;;;;;5111379;28;20372;-71
2022/10/02 13:36:15;;;;;;;1.10;0.90;;;19.50;99.90;;;;;;5111729;28;20935;-72
2022/10/02 13:38:59;;;;;;;1.25;0.60;;;19.40;99.90;;;;;;5110891;28;20414;-73
2022/10/02 13:41:40;;;;;;;2.30;0.80;;;19.50;99.90;;;;;;5111830;28;20876;-74
2022/10/02 13:44:32;;;;;;;3.70;0.70;;;19.40;99.90;;;;;;5111289;28;20516;-73
2022/10/02 13:47:22;;;;;;;0.98;0.68;;;19.30;99.90;;;;;;5110338;28;20873;-74
2022/10/02 13:50:00;;;;;;;1.23;0.60;;;19.30;99.90;;;;;;5111631;28;20388;-73
2022/10/02 13:52:50;;;;;;;1.35;0.50;;;19.30;99.90;;;;;;5111423;28;20748;-72
2022/10/02 13:55:28;;;;;;;1.60;0.63;;;19.20;99.90;;;;;;5110889;28;20510;-73
2022/10/02 13:58:11;;;;;;;2.70;0.80;;;19.10;99.90;;;;;;5123036;22;20501;-72
2022/10/02 14:00:37;;;;;;;1.40;0.60;;;19.10;99.90;;;;;;5091063;28;20406;-73
2022/10/02 14:03:32;;;;;;;0.70;0.50;;;19.00;99.90;;;;;;5090640;28;20413;-73
2022/10/02 14:06:21;;;;;;;1.00;0.60;;;19.00;99.90;;;;;;5090824;28;20389;-72
2022/10/02 14:09:09;;;;;;;0.68;0.60;;;19.30;99.90;;;;;;5090705;28;20366;-73
2022/10/02 14:11:55;;;;;;;1.27;0.60;;;19.20;99.90;;;;;;5090635;28;20390;-73
2022/10/02 14:14:56;;;;;;;1.50;0.77;;;19.10;99.90;;;;;;5090388;28;20425;-74
2022/10/02 14:17:38;;;;;;;2.30;0.85;;;18.90;99.90;;;;;;5048246;28;20409;-73